createdAt,value
2019-04-27T00:04:06.606Z,0.50
2019-04-27T00:08:39.178Z,0.73
2019-04-27T00:12:44.130Z,0.63
2019-04-27T00:17:12.833Z,0.47
2019-04-27T00:21:43.005Z,0.43
2019-04-27T00:25:48.116Z,0.50
2019-04-27T00:29:53.553Z,0.60
2019-04-27T00:33:58.570Z,0.60
2019-04-27T00:38:14.481Z,0.40
2019-04-27T00:42:19.765Z,0.40
2019-04-27T00:46:24.710Z,0.40
2019-04-27T00:50:29.732Z,0.40
2019-04-27T00:54:34.726Z,0.63
2019-04-27T00:58:45.751Z,0.40
2019-04-27T01:02:56.812Z,0.33
2019-04-27T01:07:02.923Z,0.30
2019-04-27T01:11:07.965Z,0.47
2019-04-27T01:15:13.774Z,0.87
2019-04-27T01:19:19.121Z,0.30
2019-04-27T01:23:24.040Z,0.30
2019-04-27T01:27:41.831Z,0.30
2019-04-27T01:31:48.571Z,0.47
2019-04-27T01:35:53.311Z,0.40
2019-04-27T01:39:59.054Z,0.30
2019-04-27T01:44:04.335Z,0.47
2019-04-27T01:48:22.544Z,0.37
2019-04-27T01:52:15.780Z,0.30
2019-04-27T01:56:20.968Z,0.30
2019-04-27T02:00:59.406Z,0.30
2019-04-27T02:05:22.066Z,0.30
2019-04-27T02:09:28.860Z,0.30
2019-04-27T02:13:33.894Z,0.23
2019-04-27T02:17:38.954Z,0.30
2019-04-27T02:21:43.937Z,0.37
2019-04-27T02:25:49.666Z,0.40
2019-04-27T02:30:13.620Z,0.30
2019-04-27T02:34:21.327Z,0.40
2019-04-27T02:38:26.201Z,0.40
2019-04-27T02:42:42.260Z,0.30
2019-04-27T02:46:49.945Z,0.40
2019-04-27T02:50:56.118Z,0.30
2019-04-27T02:55:00.983Z,0.20
2019-04-27T02:59:05.993Z,0.30
2019-04-27T03:03:12.484Z,0.40
2019-04-27T03:07:19.852Z,0.40
2019-04-27T03:11:25.007Z,0.30
2019-04-27T03:15:55.028Z,0.30
2019-04-27T03:20:14.467Z,0.30
2019-04-27T03:24:19.936Z,0.30
2019-04-27T03:28:26.285Z,0.30
2019-04-27T03:32:31.877Z,0.30
2019-04-27T03:36:39.361Z,0.50
2019-04-27T03:40:45.202Z,0.43
2019-04-27T03:44:52.181Z,0.40
2019-04-27T03:49:02.668Z,0.40
2019-04-27T03:53:26.403Z,0.40
2019-04-27T03:57:56.492Z,0.63
2019-04-27T04:02:03.481Z,0.53
2019-04-27T04:06:13.515Z,0.50
2019-04-27T04:10:20.684Z,0.50
2019-04-27T04:14:27.036Z,1.43
2019-04-27T04:18:51.039Z,0.67
2019-04-27T04:23:00.173Z,0.40
2019-04-27T04:27:06.171Z,0.40
2019-04-27T04:31:13.882Z,0.50
2019-04-27T04:35:21.889Z,0.60
2019-04-27T04:39:29.356Z,0.50
2019-04-27T04:44:00.002Z,0.50
2019-04-27T04:48:15.534Z,0.50
2019-04-27T04:52:20.424Z,0.57
2019-04-27T04:56:35.319Z,0.40
2019-04-27T05:17:50.973Z,0.63
2019-04-27T05:26:53.753Z,0.50
2019-04-27T05:31:00.381Z,0.40
2019-04-27T05:35:05.427Z,0.40
2019-04-27T05:39:13.136Z,0.30
2019-04-27T05:43:19.385Z,0.40
2019-04-27T05:47:37.091Z,0.40
2019-04-27T05:51:42.124Z,0.20
2019-04-27T05:55:49.430Z,0.40
2019-04-27T05:59:55.048Z,0.47
2019-04-27T06:03:59.904Z,0.33
2019-04-27T06:08:04.786Z,0.50
2019-04-27T06:12:09.685Z,0.30
2019-04-27T06:16:14.595Z,0.30
2019-04-27T06:20:19.474Z,0.50
2019-04-27T06:24:24.413Z,0.40
2019-04-27T06:28:31.449Z,0.20
2019-04-27T06:32:39.534Z,0.30
2019-04-27T06:36:45.781Z,0.50
2019-04-27T06:40:52.019Z,0.47
2019-04-27T06:44:56.943Z,0.30
2019-04-27T06:49:01.863Z,0.40
2019-04-27T06:53:06.737Z,0.50
2019-04-27T06:57:11.907Z,0.30
2019-04-27T07:01:19.405Z,0.77
2019-04-27T07:05:24.025Z,0.40
2019-04-27T07:09:29.536Z,0.20
2019-04-27T07:13:34.623Z,0.30
2019-04-27T07:17:39.532Z,0.37
2019-04-27T07:21:47.013Z,0.33
2019-04-27T07:25:51.905Z,0.50
2019-04-27T07:38:52.581Z,0.40
2019-04-27T07:43:04.080Z,0.30
2019-04-27T07:47:26.661Z,0.30
2019-04-27T07:51:34.316Z,0.30
2019-04-27T07:55:39.449Z,0.30
2019-04-27T07:59:44.530Z,0.40
2019-04-27T08:03:49.430Z,0.40
2019-04-27T08:07:54.349Z,0.33
2019-04-27T08:16:06.393Z,0.50
2019-04-27T08:20:11.413Z,0.30
2019-04-27T08:24:16.425Z,0.40
2019-04-27T08:28:34.922Z,0.53
2019-04-27T08:32:42.769Z,0.40
2019-04-27T08:36:47.649Z,0.40
2019-04-27T08:40:52.940Z,0.40
2019-04-27T08:44:59.352Z,0.40
2019-04-27T08:53:24.238Z,0.30
2019-04-27T08:57:29.261Z,0.30
2019-04-27T09:01:34.122Z,0.50
2019-04-27T09:05:39.195Z,0.40
2019-04-27T09:09:46.459Z,0.40
2019-04-27T09:14:19.527Z,0.30
2019-04-27T09:18:26.654Z,0.40
2019-04-27T09:22:31.628Z,0.30
2019-04-27T09:26:36.509Z,0.30
2019-04-27T09:30:41.422Z,0.30
2019-04-27T09:34:46.743Z,0.30
2019-04-27T09:38:51.784Z,0.30
2019-04-27T09:42:57.223Z,0.20
2019-04-27T09:47:02.250Z,0.30
2019-04-27T09:51:07.280Z,0.30
2019-04-27T09:55:12.421Z,0.33
2019-04-27T09:59:22.330Z,0.30
2019-04-27T10:03:27.265Z,0.30
2019-04-27T10:07:32.187Z,0.40
2019-04-27T10:11:37.079Z,0.40
2019-04-27T10:15:43.394Z,0.30
2019-04-27T10:19:48.308Z,0.43
2019-04-27T10:23:53.281Z,0.40
2019-04-27T10:28:01.242Z,0.30
2019-04-27T10:32:06.474Z,0.50
2019-04-27T10:36:11.487Z,0.40
2019-04-27T10:40:16.389Z,0.30
2019-04-27T10:44:26.678Z,0.30
2019-04-27T10:48:33.060Z,0.30
2019-04-27T10:52:53.243Z,0.30
2019-04-27T10:56:59.393Z,0.30
2019-04-27T11:01:08.727Z,0.30
2019-04-27T11:05:22.020Z,0.30
2019-04-27T11:09:29.418Z,0.40
2019-04-27T11:13:35.920Z,0.30
2019-04-27T11:17:42.492Z,0.30
2019-04-27T11:21:47.416Z,0.33
2019-04-27T11:25:52.794Z,0.27
2019-04-27T11:29:57.684Z,0.30
2019-04-27T11:34:02.573Z,0.30
2019-04-27T11:38:07.816Z,0.70
2019-04-27T11:42:12.689Z,0.40
2019-04-27T11:46:17.688Z,0.40
2019-04-27T11:50:22.706Z,0.30
2019-04-27T11:54:27.870Z,0.30
2019-04-27T11:58:34.904Z,0.30
2019-04-27T12:02:40.011Z,0.20
2019-04-27T12:06:46.260Z,0.37
2019-04-27T12:10:51.350Z,0.40
2019-04-27T12:14:56.231Z,0.30
2019-04-27T12:19:01.206Z,0.30
2019-04-27T12:23:06.667Z,0.88
2019-04-27T12:27:30.699Z,0.60
2019-04-27T12:31:44.811Z,0.30
2019-04-27T12:35:48.985Z,0.30
2019-04-27T12:39:55.494Z,0.30
2019-04-27T12:44:00.555Z,0.30
2019-04-27T12:48:05.522Z,0.30
2019-04-27T12:52:10.505Z,0.30
2019-04-27T12:56:28.216Z,0.40
2019-04-27T13:00:37.186Z,0.53
2019-04-27T13:04:42.179Z,0.40
2019-04-27T13:08:47.300Z,0.40
2019-04-27T13:12:52.233Z,0.60
2019-04-27T13:16:57.149Z,0.40
2019-04-27T13:21:02.343Z,0.30
2019-04-27T13:25:07.947Z,0.43
2019-04-27T13:29:12.846Z,0.40
2019-04-27T13:33:17.842Z,0.30
2019-04-27T13:37:36.537Z,0.20
2019-04-27T13:41:41.541Z,0.40
2019-04-27T13:45:57.859Z,0.30
2019-04-27T13:50:14.168Z,0.30
2019-04-27T13:54:26.098Z,0.30
2019-04-27T13:58:25.645Z,0.40
2019-04-27T14:02:32.543Z,0.30
2019-04-27T14:06:37.089Z,0.40
2019-04-27T14:10:41.977Z,0.50
2019-04-27T14:14:48.899Z,0.43
2019-04-27T14:18:53.726Z,0.30
2019-04-27T14:23:13.198Z,0.70
2019-04-27T14:27:19.333Z,0.33
2019-04-27T14:31:24.188Z,0.40
2019-04-27T14:35:29.220Z,0.30
2019-04-27T14:39:34.329Z,0.40
2019-04-27T14:43:40.161Z,0.30
2019-04-27T14:47:45.138Z,0.40
2019-04-27T14:51:50.017Z,0.50
2019-04-27T14:55:54.896Z,0.40
2019-04-27T15:00:00.177Z,0.50
2019-04-27T15:04:10.161Z,0.50
2019-04-27T15:08:15.112Z,0.30
2019-04-27T15:12:25.707Z,0.40
2019-04-27T15:16:26.593Z,0.40
2019-04-27T15:20:39.724Z,0.40
2019-04-27T15:24:48.934Z,0.70
2019-04-27T15:28:52.252Z,0.50
2019-04-27T15:33:19.326Z,0.50
2019-04-27T15:37:39.371Z,0.80
2019-04-27T15:41:50.340Z,0.60
2019-04-27T15:45:57.654Z,0.40
2019-04-27T15:50:02.257Z,0.50
2019-04-27T15:54:08.065Z,0.30
2019-04-27T15:58:13.682Z,0.40
2019-04-27T16:02:18.862Z,0.43
2019-04-27T16:06:23.776Z,0.40
2019-04-27T16:10:32.660Z,0.40
2019-04-27T16:14:36.503Z,0.40
2019-04-27T16:18:42.606Z,0.43
2019-04-27T16:22:48.815Z,0.50
2019-04-27T16:26:56.085Z,0.40
2019-04-27T16:31:00.649Z,0.40
2019-04-27T16:35:08.275Z,0.50
2019-04-27T16:39:13.344Z,0.50
2019-04-27T16:43:18.835Z,0.60
2019-04-27T16:47:24.616Z,0.73
2019-04-27T16:51:36.406Z,0.50
2019-04-27T16:55:36.254Z,0.60
2019-04-27T16:59:46.158Z,0.43
2019-04-27T17:03:48.557Z,0.50
2019-04-27T17:07:53.879Z,0.63
2019-04-27T17:11:59.364Z,0.60
2019-04-27T17:16:28.752Z,0.70
2019-04-27T17:20:31.837Z,0.47
2019-04-27T17:24:45.264Z,0.53
2019-04-27T17:28:50.884Z,0.60
2019-04-27T17:33:10.282Z,0.50
2019-04-27T17:37:11.370Z,0.63
2019-04-27T17:41:18.264Z,1.23
2019-04-27T17:45:23.082Z,1.13
2019-04-27T17:49:28.202Z,0.70
2019-04-27T17:53:33.284Z,0.90
2019-04-27T17:57:39.166Z,0.70
2019-04-27T18:01:44.309Z,0.70
2019-04-27T18:05:51.909Z,0.80
2019-04-27T18:09:56.036Z,0.60
2019-04-27T18:14:01.645Z,1.10
2019-04-27T18:18:16.459Z,0.63
2019-04-27T18:22:22.927Z,0.90
2019-04-27T18:26:49.569Z,0.60
2019-04-27T18:31:11.562Z,0.67
2019-04-27T18:35:19.982Z,0.53
2019-04-27T18:39:22.307Z,0.83
2019-04-27T18:43:28.591Z,0.60
2019-04-27T18:47:35.339Z,0.70
2019-04-27T18:52:03.957Z,0.70
2019-04-27T18:56:05.500Z,0.67
2019-04-27T19:00:14.161Z,0.43
2019-04-27T19:04:19.083Z,0.90
2019-04-27T19:08:23.955Z,0.50
2019-04-27T19:12:28.875Z,0.70
2019-04-27T19:16:33.863Z,0.70
2019-04-27T19:20:39.104Z,0.73
2019-04-27T19:24:44.094Z,0.80
2019-04-27T19:29:05.693Z,0.90
2019-04-27T19:33:10.707Z,1.17
2019-04-27T19:37:15.621Z,0.70
2019-04-27T19:41:20.523Z,0.57
2019-04-27T19:45:25.443Z,0.90
2019-04-27T19:49:31.787Z,1.10
2019-04-27T19:53:36.859Z,1.70
2019-04-27T19:57:42.099Z,1.50
2019-04-27T20:01:49.086Z,2.00
2019-04-27T20:05:54.770Z,1.70
2019-04-27T20:10:03.512Z,2.63
2019-04-27T20:14:08.461Z,1.87
2019-04-27T20:18:13.326Z,1.80
2019-04-27T20:22:18.304Z,2.10
2019-04-27T20:26:23.497Z,2.50
2019-04-27T20:30:28.355Z,2.50
2019-04-27T20:34:33.271Z,2.10
2019-04-27T20:38:38.182Z,2.70
2019-04-27T20:42:43.302Z,2.57
2019-04-27T20:46:48.164Z,1.77
2019-04-27T20:50:53.138Z,2.00
2019-04-27T20:54:58.354Z,1.90
2019-04-27T20:59:03.496Z,1.63
2019-04-27T21:03:17.819Z,1.17
2019-04-27T21:07:38.498Z,1.83
2019-04-27T21:11:47.420Z,1.93
2019-04-27T21:15:52.356Z,1.77
2019-04-27T21:19:57.376Z,1.80
2019-04-27T21:24:02.257Z,1.40
2019-04-27T21:28:16.558Z,1.80
2019-04-27T21:32:13.866Z,1.70
2019-04-27T21:36:18.725Z,1.33
2019-04-27T21:40:24.823Z,1.13
2019-04-27T21:44:31.810Z,1.53
2019-04-27T21:48:36.358Z,1.40
2019-04-27T21:52:46.269Z,1.40
2019-04-27T21:56:51.764Z,1.17
2019-04-27T22:01:14.192Z,1.57
2019-04-27T22:05:19.374Z,1.07
2019-04-27T22:09:25.938Z,1.67
2019-04-27T22:13:31.284Z,1.50
2019-04-27T22:17:36.181Z,1.63
2019-04-27T22:21:41.989Z,1.10
2019-04-27T22:25:47.033Z,1.53
2019-04-27T22:29:52.748Z,1.40
2019-04-27T22:33:57.615Z,1.27
2019-04-27T22:38:02.492Z,1.73
2019-04-27T22:42:32.232Z,1.27
2019-04-27T22:46:38.064Z,1.37
2019-04-27T22:50:42.955Z,1.53
2019-04-27T22:54:47.840Z,2.13
2019-04-27T22:59:00.946Z,1.70
2019-04-27T23:03:06.415Z,1.50
2019-04-27T23:07:11.402Z,1.60
2019-04-27T23:11:16.294Z,1.67
2019-04-27T23:15:23.949Z,1.30
2019-04-27T23:19:28.960Z,1.20
2019-04-27T23:23:33.885Z,1.90
2019-04-27T23:27:38.878Z,2.63
2019-04-27T23:31:53.264Z,1.33
2019-04-27T23:35:58.121Z,1.23
2019-04-27T23:40:03.334Z,1.63
2019-04-27T23:44:08.225Z,1.27
2019-04-27T23:48:13.240Z,1.40
2019-04-27T23:52:23.933Z,1.40
2019-04-27T23:56:28.821Z,1.37
